Terminal Aerodrome Forecast
Issued by NWS Grand Forks, ND

Home | Current Version | Previous Version | Graphics & Text | Print | Product List | Glossary On
Versions: 1 2 3 4 5 6 7 8 9 10 11 12 13 14 15 16 17
486
FTUS43 KFGF 271556 AAA
TAFFAR
TAF AMD
KFAR 271556Z 2716/2812 23010KT P6SM FEW250
     FM271800 26014G23KT P6SM SCT050
     FM280000 26011KT P6SM BKN120
     FM280300 30007KT P6SM BKN100=

USA.gov is the U.S. government's official web portal to all federal, state and local government web resources and services.